Time;durP1;ratioP1;P1;durP2;ratioP2;P2;SDS_P1;SDS_P2;PMS_P1;PMS_P2;Temp;Humidity;BMP_temperature;BMP_pressure;BME280_temperature;BME280_humidity;BME280_pressure;Samples;Min_cycle;Max_cycle;Signal;HPM_P1;HPM_P2
2022/10/31 00:01:26;;;;;;;1.10;0.98;;;;;;;10.81;65.67;96704.38;5074091;28;20079;-61
2022/10/31 00:03:54;;;;;;;1.17;1.08;;;;;;;10.86;65.36;96710.31;5073989;28;20092;-61
2022/10/31 00:06:21;;;;;;;7.47;1.25;;;;;;;10.85;65.14;96707.75;5073872;28;20102;-61
2022/10/31 00:08:52;;;;;;;1.98;1.15;;;;;;;10.91;65.12;96709.28;5073856;28;20045;-60
2022/10/31 00:11:20;;;;;;;1.42;1.15;;;;;;;10.91;65.06;96710.16;5073789;28;20075;-61
2022/10/31 00:13:47;;;;;;;1.90;1.27;;;;;;;10.93;64.37;96705.69;5073707;28;20045;-61
2022/10/31 00:16:16;;;;;;;3.78;1.20;;;;;;;10.98;64.84;96697.69;5073677;28;20044;-61
2022/10/31 00:18:45;;;;;;;0.90;0.90;;;;;;;11.00;64.57;96698.50;5073682;28;20059;-61
2022/10/31 00:21:12;;;;;;;1.35;1.20;;;;;;;11.01;64.16;96708.03;5073099;28;20079;-61
2022/10/31 00:23:39;;;;;;;2.47;0.95;;;;;;;11.05;64.01;96712.25;5073297;28;20053;-61
2022/10/31 00:26:06;;;;;;;3.47;1.58;;;;;;;11.09;64.15;96702.53;5073502;28;20136;-61
2022/10/31 00:28:34;;;;;;;1.70;1.02;;;;;;;11.15;64.38;96704.94;5073171;28;20048;-61
2022/10/31 00:31:01;;;;;;;6.55;1.77;;;;;;;11.18;64.06;96702.19;5073361;28;20052;-61
2022/10/31 00:33:29;;;;;;;5.07;1.65;;;;;;;11.25;63.71;96708.03;5073592;28;20124;-60
2022/10/31 00:35:58;;;;;;;3.03;1.00;;;;;;;11.31;63.27;96707.81;5073333;28;20052;-61
2022/10/31 00:38:25;;;;;;;8.65;1.17;;;;;;;11.38;63.16;96696.19;5073336;28;20106;-60
2022/10/31 00:40:52;;;;;;;1.48;1.20;;;;;;;11.50;63.09;96701.88;5073372;28;20135;-61
2022/10/31 00:43:19;;;;;;;1.80;1.40;;;;;;;11.47;63.12;96694.13;5073320;28;20048;-59
2022/10/31 00:45:46;;;;;;;2.08;1.55;;;;;;;11.57;62.70;96694.59;5073366;28;20478;-61
2022/10/31 00:48:14;;;;;;;1.35;1.23;;;;;;;11.65;62.24;96705.63;5073223;28;20422;-61
2022/10/31 00:50:41;;;;;;;4.20;1.55;;;;;;;11.74;62.20;96704.44;5073470;28;20129;-61
2022/10/31 00:53:10;;;;;;;4.03;1.10;;;;;;;11.77;62.73;96708.69;5073133;28;20072;-61
2022/10/31 00:55:37;;;;;;;2.13;1.23;;;;;;;11.78;62.43;96713.88;5072970;28;20058;-61
2022/10/31 00:58:04;;;;;;;6.35;1.38;;;;;;;11.85;62.21;96706.59;5073402;28;20143;-61
2022/10/31 01:00:32;;;;;;;3.70;1.65;;;;;;;11.90;62.24;96707.28;5073249;28;20098;-60
2022/10/31 01:02:59;;;;;;;2.65;1.30;;;;;;;11.91;62.31;96698.50;5073191;28;20041;-61
2022/10/31 01:05:26;;;;;;;3.58;1.40;;;;;;;11.97;62.97;96706.09;5073028;28;20554;-61
2022/10/31 01:07:53;;;;;;;3.30;1.05;;;;;;;12.02;62.61;96700.69;5073226;28;20175;-60
2022/10/31 01:10:22;;;;;;;2.38;1.40;;;;;;;12.07;62.19;96698.72;5072987;28;20724;-61
2022/10/31 01:12:50;;;;;;;1.70;0.95;;;;;;;12.16;61.64;96696.66;5072966;28;20498;-61
2022/10/31 01:15:20;;;;;;;3.45;1.25;;;;;;;12.24;61.10;96705.03;5072774;28;20045;-60
2022/10/31 01:17:47;;;;;;;3.50;1.10;;;;;;;12.28;60.41;96692.66;5072985;28;20044;-61
2022/10/31 01:20:15;;;;;;;4.07;1.30;;;;;;;12.31;59.81;96695.16;5072865;28;20460;-60
2022/10/31 01:22:42;;;;;;;9.05;1.33;;;;;;;12.38;60.50;96693.97;5072582;28;20084;-60
2022/10/31 01:25:11;;;;;;;3.30;1.27;;;;;;;12.33;60.86;96691.53;5072796;28;20116;-61
2022/10/31 01:27:39;;;;;;;2.72;1.27;;;;;;;12.38;60.67;96693.97;5072772;28;20049;-61
2022/10/31 01:30:07;;;;;;;2.20;1.27;;;;;;;12.42;60.87;96686.81;5072715;28;20079;-61
2022/10/31 01:32:35;;;;;;;5.82;1.45;;;;;;;12.41;61.36;96706.09;5072790;28;20056;-61
2022/10/31 01:35:02;;;;;;;4.15;1.27;;;;;;;12.43;60.50;96699.03;5075628;28;20057;-62
2022/10/31 01:37:29;;;;;;;1.25;1.08;;;;;;;12.50;60.32;96696.06;5076863;28;20087;-62
2022/10/31 01:39:56;;;;;;;4.10;1.58;;;;;;;12.53;60.06;96702.97;5076801;28;20123;-61
2022/10/31 01:42:24;;;;;;;3.30;1.40;;;;;;;12.54;59.88;96699.41;5076626;28;20044;-61
2022/10/31 01:44:56;;;;;;;5.93;1.38;;;;;;;12.57;60.15;96699.28;5076590;28;20087;-61
2022/10/31 01:47:33;;;;;;;3.95;1.38;;;;;;;12.56;61.18;96696.72;5076572;28;20098;-61
2022/10/31 01:50:03;;;;;;;2.10;1.05;;;;;;;12.52;60.82;96701.22;5076588;28;20048;-62
2022/10/31 01:52:33;;;;;;;2.35;1.30;;;;;;;12.48;60.94;96695.28;5076478;28;20041;-62
2022/10/31 01:55:05;;;;;;;2.90;1.27;;;;;;;12.47;61.69;96696.22;5076417;28;20056;-61
2022/10/31 01:57:34;;;;;;;1.42;1.30;;;;;;;12.48;61.58;96703.16;5076243;28;20048;-62
2022/10/31 02:00:07;;;;;;;1.58;1.10;;;;;;;12.49;61.70;96696.97;5076284;28;20076;-61
2022/10/31 02:02:34;;;;;;;1.20;1.08;;;;;;;12.48;61.69;96699.66;5076330;28;20087;-62
2022/10/31 02:05:05;;;;;;;6.95;1.48;;;;;;;12.49;61.60;96699.59;5076260;28;20124;-62
2022/10/31 02:07:38;;;;;;;2.17;1.52;;;;;;;12.49;62.34;96699.59;5076038;28;20131;-61
2022/10/31 02:10:06;;;;;;;1.90;1.15;;;;;;;12.49;62.30;96701.38;5076165;28;20498;-61
2022/10/31 02:12:35;;;;;;;2.88;1.40;;;;;;;12.47;62.05;96700.59;5076179;28;20127;-62
2022/10/31 02:15:05;;;;;;;3.80;1.40;;;;;;;12.48;61.54;96704.91;5075941;28;20044;-61
2022/10/31 02:17:34;;;;;;;2.05;0.98;;;;;;;12.53;61.95;96705.59;5075839;28;20080;-61
2022/10/31 02:20:12;;;;;;;1.48;1.05;;;;;;;12.51;62.09;96702.16;5075920;28;20102;-61
2022/10/31 02:23:04;;;;;;;2.10;1.23;;;;;;;12.49;61.67;96704.84;5075787;28;20098;-61
2022/10/31 02:25:52;;;;;;;1.52;1.08;;;;;;;12.52;62.04;96701.22;5075828;28;20452;-61
2022/10/31 02:28:42;;;;;;;3.40;1.33;;;;;;;12.52;62.43;96706.47;5075887;28;20384;-61
2022/10/31 02:31:23;;;;;;;1.40;1.13;;;;;;;12.49;63.10;96694.34;5075829;28;20045;-61
2022/10/31 02:33:54;;;;;;;3.13;1.05;;;;;;;12.44;62.68;96704.22;5075644;28;20127;-62
2022/10/31 02:36:30;;;;;;;1.20;1.10;;;;;;;12.46;62.82;96704.97;5075712;28;20127;-61
2022/10/31 02:39:12;;;;;;;4.25;1.20;;;;;;;12.48;62.71;96711.03;5075627;28;20548;-61
2022/10/31 02:41:49;;;;;;;3.92;1.40;;;;;;;12.55;62.57;96716.84;5075667;28;20055;-61
2022/10/31 02:44:22;;;;;;;2.13;1.30;;;;;;;12.55;62.62;96719.47;5075116;28;20128;-60
2022/10/31 02:46:57;;;;;;;5.68;1.05;;;;;;;12.59;62.37;96715.81;5075449;28;20113;-61
2022/10/31 02:49:29;;;;;;;2.92;1.48;;;;;;;12.58;61.96;96719.34;5075372;28;20556;-61
2022/10/31 02:51:56;;;;;;;2.30;1.65;;;;;;;12.60;62.16;96725.38;5075340;28;20106;-61
2022/10/31 02:54:26;;;;;;;1.58;1.48;;;;;;;12.69;62.07;96728.50;5075407;28;20126;-61
2022/10/31 02:57:00;;;;;;;1.95;1.20;;;;;;;12.76;61.66;96727.31;5075244;28;20052;-62
2022/10/31 02:59:30;;;;;;;2.67;1.55;;;;;;;12.75;61.42;96728.25;5075256;28;20048;-61
2022/10/31 03:02:17;;;;;;;2.10;1.35;;;;;;;12.78;60.94;96728.13;5075146;28;20049;-61
2022/10/31 03:05:24;;;;;;;4.00;1.40;;;;;;;12.82;62.00;96723.59;5075195;28;20123;-62
2022/10/31 03:08:00;;;;;;;3.05;1.40;;;;;;;12.85;61.37;96728.69;5054130;28;20124;-61
2022/10/31 03:10:36;;;;;;;6.25;1.48;;;;;;;12.89;61.09;96735.53;5075043;28;20532;-62
2022/10/31 03:13:10;;;;;;;1.58;1.23;;;;;;;12.98;61.10;96739.53;5075027;28;20048;-61
2022/10/31 03:15:41;;;;;;;5.45;1.63;;;;;;;13.09;59.50;96739.03;5074894;28;20060;-62
2022/10/31 03:18:16;;;;;;;2.85;1.55;;;;;;;13.21;59.47;96751.59;5074959;28;20473;-61
2022/10/31 03:20:50;;;;;;;3.60;1.48;;;;;;;13.29;57.93;96746.00;5074798;28;20049;-62
2022/10/31 03:23:21;;;;;;;4.68;1.50;;;;;;;13.43;57.20;96747.16;5074680;28;20114;-61
2022/10/31 03:25:49;;;;;;;4.30;1.58;;;;;;;13.59;57.80;96747.31;5074700;28;20052;-61
2022/10/31 03:28:19;;;;;;;2.03;1.15;;;;;;;13.62;57.87;96748.03;5074757;28;20083;-61
2022/10/31 03:30:49;;;;;;;6.18;1.35;;;;;;;13.68;57.28;96746.03;5074772;28;20045;-61
2022/10/31 03:33:22;;;;;;;3.70;1.52;;;;;;;13.80;57.11;96749.84;5074766;28;20044;-61
2022/10/31 03:35:53;;;;;;;8.15;1.70;;;;;;;13.84;56.71;96748.78;5074414;28;20208;-61
2022/10/31 03:38:22;;;;;;;3.97;1.52;;;;;;;13.90;57.13;96754.59;5074493;28;20048;-60
2022/10/31 03:40:52;;;;;;;4.03;1.83;;;;;;;13.93;56.99;96753.59;5074461;28;20090;-61
2022/10/31 03:43:25;;;;;;;6.25;1.50;;;;;;;13.96;56.77;96752.59;5074403;28;20106;-61
2022/10/31 03:45:53;;;;;;;3.50;1.50;;;;;;;14.05;55.63;96751.31;5074320;28;20261;-61
2022/10/31 03:48:22;;;;;;;5.22;1.95;;;;;;;14.15;55.40;96755.19;5074272;28;20135;-61
2022/10/31 03:50:59;;;;;;;4.78;1.75;;;;;;;14.24;55.65;96759.97;5074175;28;20040;-61
2022/10/31 03:53:32;;;;;;;3.80;1.67;;;;;;;14.23;56.11;96758.28;5074192;28;20478;-60
2022/10/31 03:56:03;;;;;;;1.98;1.40;;;;;;;14.21;57.02;96754.88;5073626;28;20486;-61
2022/10/31 03:58:37;;;;;;;1.83;1.50;;;;;;;14.13;56.59;96755.28;5073636;28;20041;-61
2022/10/31 04:01:06;;;;;;;4.05;1.40;;;;;;;14.11;57.38;96757.13;5074009;28;20074;-62
2022/10/31 04:03:37;;;;;;;2.90;1.47;;;;;;;14.05;57.17;96760.03;5073947;28;20123;-61
2022/10/31 04:06:08;;;;;;;5.22;1.60;;;;;;;14.06;56.45;96760.91;5073937;28;20041;-61
2022/10/31 04:08:41;;;;;;;3.45;1.88;;;;;;;14.02;57.09;96771.56;5073942;28;20049;-61
2022/10/31 04:11:10;;;;;;;2.63;1.80;;;;;;;13.98;57.93;96767.38;5073816;28;20478;-61
2022/10/31 04:13:40;;;;;;;9.25;1.75;;;;;;;13.99;57.16;96768.22;5073800;28;20048;-60
2022/10/31 04:16:09;;;;;;;1.35;1.20;;;;;;;13.93;57.72;96774.63;5073719;28;20094;-60
2022/10/31 04:18:38;;;;;;;4.60;2.08;;;;;;;13.88;56.72;96777.47;5073613;28;20094;-60
2022/10/31 04:21:07;;;;;;;2.15;1.40;;;;;;;13.88;56.67;96774.84;5073650;28;20078;-60
2022/10/31 04:23:35;;;;;;;3.38;1.63;;;;;;;13.93;56.56;96781.69;5073636;28;20098;-60
2022/10/31 04:26:02;;;;;;;2.78;1.70;;;;;;;13.90;56.88;96769.50;5073520;28;20518;-60
2022/10/31 04:28:30;;;;;;;4.68;1.35;;;;;;;13.96;57.72;96781.50;5073390;28;20565;-61
2022/10/31 04:30:57;;;;;;;2.85;1.67;;;;;;;13.87;57.17;96777.56;5073384;28;20407;-61
2022/10/31 04:33:24;;;;;;;2.30;1.50;;;;;;;13.86;58.01;96770.59;5073324;28;20049;-61
2022/10/31 04:35:53;;;;;;;2.08;1.52;;;;;;;13.88;57.86;96774.00;5073375;28;20090;-61
2022/10/31 04:38:20;;;;;;;2.40;1.45;;;;;;;13.85;57.64;96776.78;5073482;28;20188;-60
2022/10/31 04:40:47;;;;;;;2.55;1.70;;;;;;;13.85;57.11;96780.25;5073321;28;20087;-61
2022/10/31 04:43:15;;;;;;;4.10;1.67;;;;;;;13.86;56.91;96781.97;5073272;28;20052;-61
2022/10/31 04:45:42;;;;;;;3.63;2.13;;;;;;;13.92;56.77;96790.47;5073190;28;20045;-60
2022/10/31 04:48:09;;;;;;;3.45;1.60;;;;;;;13.92;56.93;96793.97;5073278;28;20091;-61
2022/10/31 04:50:36;;;;;;;3.30;1.90;;;;;;;13.88;58.04;96795.06;5073116;28;20045;-60
2022/10/31 04:53:05;;;;;;;4.03;1.70;;;;;;;13.79;57.29;96800.72;5073218;28;20048;-60
2022/10/31 04:55:33;;;;;;;3.42;1.92;;;;;;;13.66;58.19;96797.84;5073236;28;20048;-61
2022/10/31 04:58:00;;;;;;;5.30;2.00;;;;;;;13.64;58.18;96808.41;5073053;28;20078;-60
2022/10/31 05:00:28;;;;;;;4.65;1.73;;;;;;;13.60;57.52;96810.31;5073073;28;20101;-60
2022/10/31 05:02:56;;;;;;;2.95;1.70;;;;;;;13.62;56.99;96812.88;5073187;28;20173;-61
2022/10/31 05:05:25;;;;;;;7.05;1.83;;;;;;;13.62;57.44;96823.41;5073238;28;20142;-61
2022/10/31 05:07:53;;;;;;;2.95;1.90;;;;;;;13.60;58.33;96827.84;5072896;28;20041;-59
2022/10/31 05:10:24;;;;;;;13.60;2.13;;;;;;;13.59;58.20;96826.16;5072993;28;20047;-60
2022/10/31 05:12:53;;;;;;;5.93;2.30;;;;;;;13.58;58.19;96837.59;5073139;28;20048;-61
2022/10/31 05:15:22;;;;;;;3.70;1.77;;;;;;;13.50;58.79;96844.06;5073015;28;20049;-60
2022/10/31 05:17:50;;;;;;;9.23;2.15;;;;;;;13.40;58.96;96845.38;5072808;28;20049;-60
2022/10/31 05:20:19;;;;;;;7.38;2.50;;;;;;;13.42;58.66;96853.19;5072836;28;20049;-61
2022/10/31 05:22:47;;;;;;;5.60;2.00;;;;;;;13.34;58.97;96858.78;5072629;28;20127;-61
2022/10/31 05:25:15;;;;;;;5.57;2.30;;;;;;;13.35;59.08;96863.09;5072780;28;20052;-60
2022/10/31 05:27:45;;;;;;;7.78;1.92;;;;;;;13.30;59.15;96871.19;5072779;28;20048;-61
2022/10/31 05:30:15;;;;;;;2.63;1.77;;;;;;;13.25;59.31;96871.38;5072799;28;20124;-60
2022/10/31 05:32:43;;;;;;;4.88;1.95;;;;;;;13.30;59.32;96870.34;5072684;28;20135;-60
2022/10/31 05:35:14;;;;;;;5.40;2.03;;;;;;;13.30;59.33;96881.69;5072793;28;20083;-60
2022/10/31 05:37:41;;;;;;;3.97;2.15;;;;;;;13.31;59.58;96883.41;5072697;28;20445;-60
2022/10/31 05:40:11;;;;;;;5.00;2.03;;;;;;;13.27;59.71;96882.69;5072724;28;20048;-61
2022/10/31 05:42:40;;;;;;;11.68;2.00;;;;;;;13.32;59.87;96887.75;5072690;28;20048;-60
2022/10/31 05:45:14;;;;;;;5.82;1.90;;;;;;;13.34;60.06;96885.88;5072767;28;20045;-60
2022/10/31 05:47:41;;;;;;;4.43;2.10;;;;;;;13.36;60.15;96893.69;5072540;28;20044;-60
2022/10/31 05:50:09;;;;;;;4.18;1.90;;;;;;;13.43;60.33;96891.66;5072529;28;20051;-60
2022/10/31 05:52:37;;;;;;;4.20;1.88;;;;;;;13.48;60.33;96880.03;5072425;28;20391;-60
2022/10/31 05:55:05;;;;;;;5.50;2.08;;;;;;;13.50;60.22;96887.88;5072607;28;20052;-60
2022/10/31 05:57:34;;;;;;;4.10;2.00;;;;;;;13.67;59.61;96888.91;5072405;28;20084;-60
2022/10/31 06:00:01;;;;;;;10.30;2.38;;;;;;;13.87;60.83;96890.63;5072473;28;20123;-60
2022/10/31 06:02:34;;;;;;;4.57;1.98;;;;;;;14.23;59.17;96889.84;5072594;28;20072;-60
2022/10/31 06:05:01;;;;;;;5.80;2.50;;;;;;;14.63;57.80;96892.31;5072461;28;20048;-60
2022/10/31 06:07:35;;;;;;;2.25;1.50;;;;;;;14.99;55.44;96892.41;5072541;28;20044;-60
2022/10/31 06:10:04;;;;;;;2.53;1.80;;;;;;;15.10;55.13;96897.97;5072456;28;20510;-60
2022/10/31 06:12:31;;;;;;;3.60;1.63;;;;;;;15.19;55.24;96912.47;5072318;28;20045;-61
2022/10/31 06:14:58;;;;;;;5.70;1.60;;;;;;;15.31;55.11;96910.97;5072466;28;20049;-61
2022/10/31 06:17:25;;;;;;;9.63;2.10;;;;;;;15.41;55.44;96908.69;5072255;28;20106;-61
2022/10/31 06:19:54;;;;;;;6.03;2.15;;;;;;;15.51;55.27;96909.09;5072925;28;20402;-61
2022/10/31 06:22:21;;;;;;;6.72;2.35;;;;;;;16.02;55.44;96910.88;5075598;28;20053;-60
2022/10/31 06:24:48;;;;;;;6.10;1.85;;;;;;;16.92;53.08;96921.69;5075872;28;20055;-60
2022/10/31 06:27:15;;;;;;;6.57;2.30;;;;;;;18.43;51.23;96925.06;5075958;28;20457;-61
2022/10/31 06:29:42;;;;;;;3.03;1.75;;;;;;;20.42;45.89;96927.78;5075812;28;20052;-61
2022/10/31 06:32:11;;;;;;;2.33;1.52;;;;;;;22.60;40.33;96923.84;5075728;28;20044;-60
2022/10/31 06:34:39;;;;;;;2.80;1.65;;;;;;;24.38;36.70;96935.75;5075552;28;20044;-61
2022/10/31 06:37:09;;;;;;;8.13;1.67;;;;;;;25.38;35.25;96926.88;5075502;28;20410;-61
2022/10/31 06:39:37;;;;;;;3.40;1.70;;;;;;;26.32;33.67;96929.75;5075653;28;20091;-61
2022/10/31 06:42:05;;;;;;;3.95;1.58;;;;;;;27.18;31.49;96934.03;5091070;28;20565;-61
2022/10/31 06:44:33;;;;;;;3.83;2.13;;;;;;;28.45;29.34;96936.41;5075676;28;20448;-60
2022/10/31 06:47:00;;;;;;;4.47;1.60;;;;;;;29.69;26.59;96944.84;5075647;28;20118;-61
2022/10/31 06:49:27;;;;;;;3.47;2.10;;;;;;;30.93;25.88;96948.13;5075523;28;20048;-60
2022/10/31 06:51:55;;;;;;;4.35;2.28;;;;;;;31.99;23.90;96944.78;5075474;28;20086;-61
2022/10/31 06:54:24;;;;;;;5.22;2.13;;;;;;;32.87;22.38;96945.09;5075369;28;20048;-60
2022/10/31 06:56:51;;;;;;;3.33;1.90;;;;;;;33.27;21.27;96941.97;5075272;28;20048;-61
2022/10/31 06:59:18;;;;;;;4.00;2.30;;;;;;;33.98;20.68;96950.28;5075257;28;20080;-61
2022/10/31 07:01:45;;;;;;;10.02;2.10;;;;;;;34.66;19.74;96949.66;5075146;28;20052;-61
2022/10/31 07:04:12;;;;;;;5.28;2.28;;;;;;;35.25;18.76;96945.66;5075129;28;20482;-61
2022/10/31 07:06:39;;;;;;;7.05;2.13;;;;;;;35.08;18.71;96943.28;5075054;28;20045;-61
2022/10/31 07:09:07;;;;;;;3.35;1.80;;;;;;;33.59;19.70;96942.47;5075206;28;20441;-60
2022/10/31 07:11:35;;;;;;;3.08;1.77;;;;;;;32.96;20.45;96943.94;5075139;28;20050;-60
2022/10/31 07:14:02;;;;;;;4.45;2.20;;;;;;;31.64;21.53;96939.84;5074939;28;20102;-61
2022/10/31 07:16:29;;;;;;;2.78;2.05;;;;;;;31.21;22.17;96942.22;5074943;28;20098;-60
2022/10/31 07:18:56;;;;;;;2.63;1.58;;;;;;;29.76;23.60;96938.59;5074778;28;20122;-60
2022/10/31 07:21:23;;;;;;;3.88;1.80;;;;;;;28.47;25.15;96938.91;5074686;28;20090;-60
2022/10/31 07:23:52;;;;;;;3.47;2.13;;;;;;;28.00;26.28;96935.66;5074828;28;20122;-60
2022/10/31 07:26:19;;;;;;;5.35;2.22;;;;;;;29.31;25.15;96934.56;5074760;28;20083;-60
2022/10/31 07:28:48;;;;;;;3.05;2.00;;;;;;;29.90;23.95;96944.31;5074638;28;20091;-60
2022/10/31 07:31:16;;;;;;;4.60;2.13;;;;;;;29.94;23.72;96937.53;5074500;28;20044;-60
2022/10/31 07:33:43;;;;;;;4.00;1.60;;;;;;;29.68;24.11;96935.06;5074634;28;20041;-60
2022/10/31 07:36:11;;;;;;;5.93;1.77;;;;;;;30.04;23.97;96940.06;5074502;28;20084;-60
2022/10/31 07:38:38;;;;;;;3.45;2.08;;;;;;;31.14;23.07;96934.84;5074424;28;20482;-60
2022/10/31 07:41:06;;;;;;;3.03;1.83;;;;;;;32.09;21.96;96933.69;5074448;28;20410;-60
2022/10/31 07:43:33;;;;;;;3.70;1.70;;;;;;;32.17;21.25;96934.63;5074353;28;20084;-60
2022/10/31 07:46:02;;;;;;;3.40;1.90;;;;;;;32.84;20.73;96932.75;5074366;28;20049;-60
2022/10/31 07:48:30;;;;;;;2.90;2.28;;;;;;;33.70;20.28;96940.28;5074313;28;20094;-60
2022/10/31 07:50:57;;;;;;;2.60;2.10;;;;;;;34.32;19.48;96936.94;5074211;28;20040;-60
2022/10/31 07:53:25;;;;;;;7.72;2.65;;;;;;;34.52;19.43;96935.16;5074117;28;20052;-60
2022/10/31 07:55:52;;;;;;;4.22;1.98;;;;;;;33.95;19.77;96937.13;5074075;28;20096;-60
2022/10/31 07:58:20;;;;;;;6.57;1.95;;;;;;;33.70;20.20;96929.41;5073983;28;20055;-60
2022/10/31 08:00:48;;;;;;;5.82;2.05;;;;;;;33.11;20.83;96929.53;5074008;28;20135;-60
2022/10/31 08:03:19;;;;;;;5.88;2.03;;;;;;;32.54;20.97;96935.56;5074050;28;20488;-60
2022/10/31 08:05:47;;;;;;;5.60;2.13;;;;;;;31.00;22.42;96938.31;5074029;28;20418;-60
2022/10/31 08:08:16;;;;;;;2.88;1.90;;;;;;;29.47;24.60;96939.94;5073972;28;20052;-61
2022/10/31 08:10:43;;;;;;;6.10;2.28;;;;;;;28.49;25.85;96932.38;5073907;28;20055;-60
2022/10/31 08:13:13;;;;;;;4.70;1.88;;;;;;;27.88;27.24;96937.75;5073917;28;20422;-60
2022/10/31 08:15:41;;;;;;;4.55;2.33;;;;;;;27.71;27.42;96936.78;5073809;28;20105;-60
2022/10/31 08:18:13;;;;;;;3.55;2.25;;;;;;;27.71;27.57;96944.84;5073641;28;20055;-60
2022/10/31 08:20:43;;;;;;;2.50;2.03;;;;;;;27.02;28.13;96942.78;5073844;28;20049;-60
2022/10/31 08:23:12;;;;;;;3.40;2.13;;;;;;;26.10;29.80;96936.31;5073542;28;20086;-59
2022/10/31 08:25:39;;;;;;;3.47;2.00;;;;;;;25.78;29.96;96941.06;5073512;28;20430;-60
2022/10/31 08:28:07;;;;;;;5.22;2.80;;;;;;;25.78;30.73;96942.88;5073559;28;20041;-60
2022/10/31 08:30:37;;;;;;;5.53;1.80;;;;;;;25.51;30.24;96939.94;5073520;28;20123;-59
2022/10/31 08:33:06;;;;;;;4.15;2.00;;;;;;;24.98;31.53;96929.56;5073522;28;20052;-60
2022/10/31 08:35:35;;;;;;;3.95;1.85;;;;;;;24.52;31.99;96934.53;5073316;28;20087;-59
2022/10/31 08:38:04;;;;;;;2.45;1.98;;;;;;;24.52;32.24;96931.00;5073209;28;20055;-59
2022/10/31 08:40:33;;;;;;;3.73;2.30;;;;;;;24.54;32.78;96931.72;5073352;28;20045;-59
2022/10/31 08:43:02;;;;;;;5.13;1.63;;;;;;;24.68;32.38;96931.31;5072946;28;20070;-59
2022/10/31 08:45:32;;;;;;;5.13;2.70;;;;;;;24.81;32.47;96943.59;5073297;28;20041;-59
2022/10/31 08:48:00;;;;;;;3.17;2.45;;;;;;;24.94;32.31;96943.34;5073212;28;20044;-59
2022/10/31 08:50:28;;;;;;;18.60;7.38;;;;;;;24.81;32.39;96941.78;5073193;28;20052;-60
2022/10/31 08:53:00;;;;;;;5.18;2.42;;;;;;;24.50;32.53;96944.50;5073459;28;20458;-60
2022/10/31 08:55:29;;;;;;;3.47;1.98;;;;;;;24.42;32.59;96942.53;5073055;28;20044;-60
2022/10/31 08:57:57;;;;;;;4.25;2.00;;;;;;;24.38;32.67;96946.44;5073041;28;20045;-60
2022/10/31 09:00:26;;;;;;;3.50;2.15;;;;;;;24.48;32.80;96946.47;5073136;28;20466;-59
2022/10/31 09:02:58;;;;;;;3.20;2.20;;;;;;;24.59;33.12;96942.84;5073072;28;20052;-60
2022/10/31 09:05:26;;;;;;;5.85;2.15;;;;;;;24.76;32.88;96941.31;5072980;28;20135;-60
2022/10/31 09:07:57;;;;;;;5.57;2.08;;;;;;;24.78;32.67;96941.19;5073071;28;20559;-60
2022/10/31 09:10:25;;;;;;;4.15;2.28;;;;;;;24.76;32.04;96933.31;5073011;28;20049;-60
2022/10/31 09:12:58;;;;;;;2.72;1.90;;;;;;;24.83;32.64;96938.97;5072969;28;20143;-60
2022/10/31 09:15:26;;;;;;;4.18;2.50;;;;;;;24.60;32.43;96942.69;5072972;28;20055;-59
2022/10/31 09:17:53;;;;;;;3.33;2.00;;;;;;;24.38;32.27;96940.25;5072745;28;20106;-60
2022/10/31 09:20:23;;;;;;;4.88;2.30;;;;;;;24.26;32.69;96940.34;5072904;28;20045;-59
2022/10/31 09:22:57;;;;;;;4.40;2.28;;;;;;;24.23;32.43;96944.13;5072652;28;20059;-60
2022/10/31 09:25:24;;;;;;;3.83;2.40;;;;;;;24.29;33.35;96939.25;5072945;28;20114;-60
2022/10/31 09:27:53;;;;;;;4.82;1.70;;;;;;;24.33;32.68;96936.16;5072824;28;20060;-60
2022/10/31 09:30:22;;;;;;;2.28;1.67;;;;;;;24.21;33.35;96938.09;5073021;28;20414;-59
2022/10/31 09:32:49;;;;;;;3.22;2.00;;;;;;;24.29;33.46;96936.56;5072839;28;20047;-59
2022/10/31 09:35:16;;;;;;;3.40;1.90;;;;;;;24.43;32.46;96943.34;5073040;28;20045;-59
2022/10/31 09:37:43;;;;;;;2.95;1.95;;;;;;;24.52;32.70;96931.00;5072652;28;20057;-60
2022/10/31 09:40:11;;;;;;;2.58;2.05;;;;;;;24.52;32.34;96929.19;5072607;28;20452;-60
2022/10/31 09:43:01;;;;;;;2.47;1.83;;;;;;;24.49;32.72;96934.78;5072672;28;20050;-59
2022/10/31 09:45:40;;;;;;;2.40;2.17;;;;;;;24.65;32.67;96930.75;5072742;28;20047;-60
2022/10/31 09:48:22;;;;;;;1.67;1.50;;;;;;;24.74;31.88;96933.44;5072796;28;20098;-59
2022/10/31 09:50:53;;;;;;;5.80;2.00;;;;;;;24.69;31.93;96926.81;5072892;28;20049;-59
2022/10/31 09:53:25;;;;;;;5.88;1.75;;;;;;;24.48;32.20;96936.59;5072692;28;20506;-60
2022/10/31 09:55:54;;;;;;;3.85;1.65;;;;;;;24.35;32.26;96933.38;5075016;28;20060;-60
2022/10/31 09:58:26;;;;;;;4.53;1.77;;;;;;;24.40;32.27;96931.13;5076277;28;20052;-60
2022/10/31 10:00:59;;;;;;;1.98;1.40;;;;;;;24.17;32.97;96931.31;5076441;28;20048;-60
2022/10/31 10:03:34;;;;;;;3.00;1.55;;;;;;;24.28;32.08;96924.16;5076213;28;20053;-60
2022/10/31 10:06:12;;;;;;;3.03;1.33;;;;;;;24.33;32.61;96922.81;5076289;28;20056;-59
2022/10/31 10:08:40;;;;;;;2.38;2.08;;;;;;;24.29;32.02;96925.88;5076272;28;20053;-60
2022/10/31 10:11:32;;;;;;;2.13;1.70;;;;;;;24.27;31.99;96922.50;5076152;28;20552;-59
2022/10/31 10:14:12;;;;;;;2.05;1.30;;;;;;;24.48;32.19;96922.41;5076334;28;20048;-60
2022/10/31 10:16:58;;;;;;;4.82;1.30;;;;;;;24.63;31.98;96925.53;5076293;28;20052;-60
2022/10/31 10:19:43;;;;;;;2.53;1.60;;;;;;;24.56;32.33;96927.09;5075963;28;20048;-59
2022/10/31 10:22:17;;;;;;;3.28;1.25;;;;;;;24.44;32.18;96924.50;5075798;28;20063;-60
2022/10/31 10:24:57;;;;;;;2.83;1.65;;;;;;;24.38;32.05;96930.41;5075915;28;20079;-60
2022/10/31 10:27:33;;;;;;;3.07;2.20;;;;;;;24.19;32.08;96926.69;5075933;28;20056;-59
2022/10/31 10:30:06;;;;;;;2.83;1.75;;;;;;;24.17;32.90;96915.28;5075883;28;20052;-60
2022/10/31 10:32:49;;;;;;;2.55;1.60;;;;;;;24.38;32.11;96909.00;5075829;28;20401;-59
2022/10/31 10:35:24;;;;;;;2.63;1.40;;;;;;;24.47;31.99;96912.72;5075700;28;20387;-60
2022/10/31 10:37:53;;;;;;;5.10;1.52;;;;;;;24.61;31.88;96915.00;5075700;28;20094;-60
2022/10/31 10:40:24;;;;;;;6.72;1.63;;;;;;;24.59;31.99;96908.91;5075929;28;20051;-60
2022/10/31 10:48:43;;;;;;;1.83;1.38;;;;;;;24.84;31.63;96889.81;5075574;28;20105;-60
2022/10/31 10:51:21;;;;;;;2.13;1.33;;;;;;;24.92;31.75;96900.69;5075665;28;20048;-60
2022/10/31 10:54:03;;;;;;;4.38;1.92;;;;;;;25.08;31.72;96905.47;5075643;28;20064;-60
2022/10/31 10:56:46;;;;;;;3.17;1.60;;;;;;;25.17;31.63;96898.44;5075249;28;20045;-60
2022/10/31 10:59:20;;;;;;;2.38;1.98;;;;;;;25.15;31.16;96896.88;5075267;28;20080;-60
2022/10/31 11:01:51;;;;;;;2.08;1.23;;;;;;;25.19;31.30;96891.09;5075162;28;20451;-60
2022/10/31 11:04:29;;;;;;;3.28;1.98;;;;;;;25.02;31.02;96900.69;5075229;28;20080;-59
2022/10/31 11:07:05;;;;;;;3.97;1.70;;;;;;;24.63;31.78;96900.63;5074857;28;20053;-60
2022/10/31 11:09:32;;;;;;;1.48;1.35;;;;;;;24.52;31.88;96896.25;5075111;28;20063;-60
2022/10/31 11:12:01;;;;;;;2.70;1.48;;;;;;;24.34;31.75;96895.09;5075085;28;20044;-60
2022/10/31 11:14:29;;;;;;;2.30;1.30;;;;;;;24.14;31.89;96893.34;5074983;28;20079;-60
2022/10/31 11:17:10;;;;;;;2.88;1.30;;;;;;;24.07;32.27;96883.16;5075018;28;20044;-60
2022/10/31 11:19:39;;;;;;;1.63;1.50;;;;;;;24.08;32.41;96882.16;5074779;28;20528;-60
2022/10/31 11:22:16;;;;;;;2.30;1.38;;;;;;;24.19;32.29;96880.41;5074775;28;20095;-60
2022/10/31 11:24:44;;;;;;;2.30;1.80;;;;;;;24.33;32.48;96880.03;5074819;28;20094;-60
2022/10/31 11:27:16;;;;;;;3.30;1.67;;;;;;;24.24;32.18;96872.84;5074806;28;20044;-60
2022/10/31 11:29:43;;;;;;;2.15;1.50;;;;;;;24.20;31.82;96877.59;5074765;28;20095;-60
2022/10/31 11:32:21;;;;;;;1.58;1.40;;;;;;;24.14;32.60;96870.13;5074618;28;20053;-60
2022/10/31 11:34:52;;;;;;;2.88;1.60;;;;;;;24.23;32.40;96874.66;5074604;28;20102;-60
2022/10/31 11:37:22;;;;;;;2.05;1.40;;;;;;;24.32;32.46;96874.84;5074734;28;20048;-60
2022/10/31 11:39:54;;;;;;;2.33;1.33;;;;;;;24.39;32.49;96878.66;5074482;28;20471;-60
2022/10/31 11:42:24;;;;;;;2.05;1.40;;;;;;;24.53;32.00;96874.72;5074500;28;20379;-60
2022/10/31 11:44:52;;;;;;;3.88;2.30;;;;;;;24.46;33.31;96873.59;5074459;28;20127;-60
2022/10/31 11:47:28;;;;;;;5.63;1.38;;;;;;;24.26;32.19;96872.72;5074268;28;20056;-60
2022/10/31 11:49:58;;;;;;;2.72;1.63;;;;;;;24.06;31.58;96872.63;5074228;28;20044;-60
2022/10/31 11:52:28;;;;;;;2.30;1.40;;;;;;;24.02;31.96;96871.19;5074299;28;20088;-60
2022/10/31 11:54:57;;;;;;;1.60;1.37;;;;;;;23.88;31.77;96870.59;5074173;28;20103;-60